createdAt,value
2018-11-02T00:01:25.389Z,2.53
2018-11-02T00:06:53.064Z,3.97
2018-11-02T00:09:24.590Z,1.73
2018-11-02T00:11:55.870Z,2.40
2018-11-02T00:14:26.665Z,2.63
2018-11-02T00:16:59.433Z,1.60
2018-11-02T00:19:34.632Z,1.50
2018-11-02T00:22:06.779Z,3.30
2018-11-02T00:24:38.347Z,1.30
2018-11-02T00:27:09.085Z,2.10
2018-11-02T00:29:45.353Z,2.03
2018-11-02T00:32:17.983Z,3.10
2018-11-02T00:34:47.964Z,2.77
2018-11-02T00:37:19.884Z,1.23
2018-11-02T00:39:50.782Z,3.90
2018-11-02T00:42:24.925Z,2.73
2018-11-02T00:44:56.832Z,2.00
2018-11-02T00:47:29.200Z,3.50
2018-11-02T00:49:58.963Z,2.40
2018-11-02T00:52:30.679Z,2.87
2018-11-02T00:55:08.301Z,2.67
2018-11-02T00:57:38.297Z,4.30
2018-11-02T01:00:11.698Z,1.33
2018-11-02T01:02:43.365Z,2.33
2018-11-02T01:05:15.242Z,3.67
2018-11-02T01:07:44.415Z,2.07
2018-11-02T01:10:17.162Z,2.93
2018-11-02T01:12:47.824Z,1.57
2018-11-02T01:15:21.135Z,4.93
2018-11-02T01:17:59.040Z,2.50
2018-11-02T01:20:30.658Z,2.87
2018-11-02T01:23:06.463Z,2.53
2018-11-02T01:25:39.324Z,2.67
2018-11-02T01:28:11.770Z,1.77
2018-11-02T01:30:48.326Z,2.73
2018-11-02T01:33:30.702Z,1.87
2018-11-02T01:36:02.499Z,2.70
2018-11-02T01:38:34.597Z,1.23
2018-11-02T01:41:05.121Z,2.03
2018-11-02T01:43:37.317Z,1.07
2018-11-02T01:46:07.920Z,1.03
2018-11-02T01:48:41.875Z,0.90
2018-11-02T01:51:16.300Z,4.27
2018-11-02T01:53:45.890Z,6.03
2018-11-02T01:56:18.549Z,2.43
2018-11-02T01:58:49.128Z,3.43
2018-11-02T02:01:18.849Z,4.20
2018-11-02T02:03:53.980Z,2.30
2018-11-02T02:06:24.162Z,0.97
2018-11-02T02:08:53.308Z,1.63
2018-11-02T02:11:22.376Z,3.70
2018-11-02T02:13:52.041Z,1.53
2018-11-02T02:16:23.477Z,0.93
2018-11-02T02:18:56.357Z,3.70
2018-11-02T02:21:29.631Z,0.97
2018-11-02T02:24:03.534Z,1.93
2018-11-02T02:26:40.730Z,0.63
2018-11-02T02:29:13.542Z,2.20
2018-11-02T02:31:45.417Z,2.07
2018-11-02T02:34:17.622Z,1.70
2018-11-02T02:39:29.797Z,1.80
2018-11-02T02:42:08.082Z,3.20
2018-11-02T02:44:39.629Z,1.17
2018-11-02T02:47:11.243Z,1.67
2018-11-02T02:49:41.803Z,1.60
2018-11-02T02:52:12.816Z,1.27
2018-11-02T02:54:47.952Z,0.80
2018-11-02T02:57:19.788Z,1.53
2018-11-02T02:59:51.772Z,0.80
2018-11-02T03:02:24.131Z,0.57
2018-11-02T03:04:56.687Z,0.60
2018-11-02T03:07:29.344Z,1.20
2018-11-02T03:09:59.034Z,1.17
2018-11-02T03:12:30.834Z,0.97
2018-11-02T03:15:04.637Z,1.10
2018-11-02T03:17:37.374Z,0.60
2018-11-02T03:20:17.220Z,1.10
2018-11-02T03:22:50.951Z,1.97
2018-11-02T03:25:25.212Z,1.90
2018-11-02T03:27:57.173Z,2.00
2018-11-02T03:30:28.189Z,1.17
2018-11-02T03:32:58.549Z,0.80
2018-11-02T03:35:29.920Z,0.57
2018-11-02T03:38:02.453Z,1.77
2018-11-02T03:40:34.624Z,0.70
2018-11-02T03:43:04.471Z,3.00
2018-11-02T03:45:35.478Z,1.27
2018-11-02T03:48:04.888Z,1.73
2018-11-02T03:50:39.933Z,1.33
2018-11-02T03:53:14.243Z,1.53
2018-11-02T03:55:44.000Z,2.53
2018-11-02T03:58:16.768Z,0.57
2018-11-02T04:00:49.326Z,1.93
2018-11-02T04:03:19.446Z,2.77
2018-11-02T04:05:51.638Z,0.57
2018-11-02T04:08:26.992Z,1.47
2018-11-02T04:10:57.636Z,1.37
2018-11-02T04:13:35.090Z,2.27
2018-11-02T04:16:06.589Z,1.47
2018-11-02T04:18:37.639Z,0.70
2018-11-02T04:21:14.889Z,0.50
2018-11-02T04:23:45.495Z,1.93
2018-11-02T04:26:21.040Z,2.53
2018-11-02T04:29:03.580Z,1.33
2018-11-02T04:31:35.267Z,0.87
2018-11-02T04:34:05.098Z,0.97
2018-11-02T04:36:34.968Z,5.20
2018-11-02T04:39:08.939Z,2.97
2018-11-02T04:41:47.191Z,1.27
2018-11-02T04:44:18.083Z,1.27
2018-11-02T04:46:47.788Z,0.73
2018-11-02T04:49:18.320Z,3.97
2018-11-02T04:51:48.171Z,2.50
2018-11-02T04:54:20.300Z,3.67
2018-11-02T04:59:26.298Z,1.40
2018-11-02T05:01:57.660Z,1.10
2018-11-02T05:04:32.650Z,3.37
2018-11-02T05:07:02.464Z,5.67
2018-11-02T05:09:36.236Z,0.50
2018-11-02T05:12:07.485Z,1.40
2018-11-02T05:14:40.705Z,1.80
2018-11-02T05:17:14.146Z,2.30
2018-11-02T05:19:45.233Z,0.93
2018-11-02T05:22:17.987Z,2.17
2018-11-02T05:24:52.809Z,0.70
2018-11-02T05:27:23.285Z,1.83
2018-11-02T05:29:53.498Z,0.83
2018-11-02T05:32:22.485Z,0.90
2018-11-02T05:34:53.751Z,1.80
2018-11-02T05:37:23.055Z,1.47
2018-11-02T05:39:55.884Z,2.63
2018-11-02T05:42:29.020Z,1.53
2018-11-02T05:44:58.504Z,1.67
2018-11-02T05:47:33.344Z,2.77
2018-11-02T05:50:08.526Z,2.43
2018-11-02T05:55:16.136Z,2.03
2018-11-02T05:57:48.008Z,1.97
2018-11-02T06:00:18.896Z,2.97
2018-11-02T06:02:49.524Z,3.03
2018-11-02T06:05:29.617Z,2.83
2018-11-02T06:08:01.003Z,1.13
2018-11-02T06:10:34.990Z,1.53
2018-11-02T06:13:13.276Z,2.47
2018-11-02T06:15:45.360Z,3.97
2018-11-02T06:18:17.027Z,2.73
2018-11-02T06:20:50.293Z,2.60
2018-11-02T06:23:29.003Z,1.77
2018-11-02T06:28:38.153Z,2.20
2018-11-02T06:31:11.680Z,2.53
2018-11-02T06:33:43.325Z,1.30
2018-11-02T06:36:12.748Z,1.47
2018-11-02T06:38:42.019Z,1.90
2018-11-02T06:41:12.659Z,4.40
2018-11-02T06:43:46.668Z,0.87
2018-11-02T06:46:17.577Z,1.73
2018-11-02T06:48:48.515Z,5.10
2018-11-02T06:51:22.222Z,1.67
2018-11-02T06:53:52.824Z,2.00
2018-11-02T06:56:24.507Z,7.27
2018-11-02T06:58:57.476Z,3.60
2018-11-02T07:01:30.869Z,2.67
2018-11-02T07:04:00.415Z,1.27
2018-11-02T07:06:36.702Z,1.63
2018-11-02T07:09:08.128Z,1.70
2018-11-02T07:11:37.826Z,1.03
2018-11-02T07:14:08.364Z,1.57
2018-11-02T07:16:40.088Z,3.67
2018-11-02T07:19:11.331Z,4.47
2018-11-02T07:21:41.817Z,2.13
2018-11-02T07:24:13.528Z,2.07
2018-11-02T07:26:44.432Z,3.77
2018-11-02T07:29:17.158Z,2.07
2018-11-02T07:31:49.715Z,2.97
2018-11-02T07:34:21.748Z,3.77
2018-11-02T07:36:52.536Z,3.00
2018-11-02T07:39:27.896Z,2.17
2018-11-02T07:42:04.213Z,2.43
2018-11-02T07:44:36.257Z,1.43
2018-11-02T07:47:13.858Z,3.13
2018-11-02T07:49:44.528Z,1.90
2018-11-02T07:52:14.772Z,2.17
2018-11-02T07:54:46.695Z,6.37
2018-11-02T07:57:22.543Z,2.60
2018-11-02T07:59:53.506Z,2.37
2018-11-02T08:02:23.063Z,1.77
2018-11-02T08:05:01.369Z,3.33
2018-11-02T08:07:42.286Z,2.03
2018-11-02T08:10:13.662Z,3.03
2018-11-02T08:12:49.695Z,3.33
2018-11-02T08:15:19.611Z,7.03
2018-11-02T08:17:57.612Z,2.47
2018-11-02T08:20:29.613Z,2.97
2018-11-02T08:23:02.083Z,3.13
2018-11-02T08:25:41.120Z,4.57
2018-11-02T08:28:17.760Z,3.90
2018-11-02T08:30:53.931Z,2.97
2018-11-02T08:33:33.699Z,6.73
2018-11-02T08:36:06.732Z,2.63
2018-11-02T08:38:39.780Z,4.47
2018-11-02T08:41:26.503Z,4.63
2018-11-02T08:44:07.888Z,4.33
2018-11-02T08:46:39.846Z,4.07
2018-11-02T08:49:16.644Z,10.27
2018-11-02T08:51:47.122Z,9.40
2018-11-02T08:54:18.074Z,13.60
2018-11-02T08:56:49.068Z,6.70
2018-11-02T08:59:20.373Z,6.50
2018-11-02T09:01:56.020Z,4.73
2018-11-02T09:04:27.410Z,4.40
2018-11-02T09:06:59.937Z,12.80
2018-11-02T09:09:33.080Z,4.30
2018-11-02T09:12:08.693Z,2.90
2018-11-02T09:14:40.465Z,3.73
2018-11-02T09:17:18.453Z,3.40
2018-11-02T09:19:54.068Z,4.37
2018-11-02T09:22:37.631Z,3.60
2018-11-02T09:25:23.049Z,6.37
2018-11-02T09:27:55.773Z,4.93
2018-11-02T09:30:26.713Z,6.40
2018-11-02T09:33:06.404Z,6.07
2018-11-02T09:35:52.717Z,2.67
2018-11-02T09:38:30.751Z,4.67
2018-11-02T09:41:03.868Z,6.60
2018-11-02T09:43:42.485Z,10.97
2018-11-02T09:46:13.120Z,5.77
2018-11-02T09:48:47.769Z,2.43
2018-11-02T09:51:23.399Z,5.80
2018-11-02T09:53:54.242Z,3.00
2018-11-02T09:56:24.613Z,2.57
2018-11-02T09:59:01.844Z,4.43
2018-11-02T10:01:41.313Z,4.10
2018-11-02T10:04:13.104Z,4.23
2018-11-02T10:06:43.928Z,4.00
2018-11-02T10:09:16.917Z,6.30
2018-11-02T10:11:46.483Z,4.97
2018-11-02T10:14:17.493Z,7.80
2018-11-02T10:16:54.580Z,4.03
2018-11-02T10:19:26.971Z,3.33
2018-11-02T10:22:00.009Z,7.97
2018-11-02T10:24:31.118Z,6.43
2018-11-02T10:27:03.291Z,4.67
2018-11-02T10:29:35.087Z,4.87
2018-11-02T10:32:06.388Z,4.60
2018-11-02T10:34:38.193Z,21.30
2018-11-02T10:37:08.684Z,10.07
2018-11-02T10:39:39.822Z,4.13
2018-11-02T10:42:23.894Z,8.13
2018-11-02T10:44:58.247Z,4.93
2018-11-02T10:47:30.863Z,8.90
2018-11-02T10:52:39.986Z,5.90
2018-11-02T10:55:11.988Z,3.83
2018-11-02T10:57:41.756Z,6.57
2018-11-02T11:00:19.108Z,11.90
2018-11-02T11:02:51.059Z,4.03
2018-11-02T11:05:21.966Z,10.00
2018-11-02T11:07:53.332Z,5.07
2018-11-02T11:10:27.638Z,7.53
2018-11-02T11:12:59.648Z,5.20
2018-11-02T11:15:33.923Z,2.40
2018-11-02T11:18:07.569Z,9.33
2018-11-02T11:20:39.649Z,5.77
2018-11-02T11:23:10.400Z,4.43
2018-11-02T11:25:43.105Z,11.50
2018-11-02T11:28:21.133Z,7.17
2018-11-02T11:30:57.320Z,5.70
2018-11-02T11:33:29.131Z,7.47
2018-11-02T11:36:00.456Z,6.17
2018-11-02T11:38:34.294Z,8.60
2018-11-02T11:41:07.562Z,4.70
2018-11-02T11:43:39.213Z,4.00
2018-11-02T11:46:09.581Z,6.60
2018-11-02T11:48:44.098Z,6.30
2018-11-02T11:51:16.005Z,5.57
2018-11-02T11:53:50.630Z,8.60
2018-11-02T11:56:24.709Z,5.60
2018-11-02T11:58:59.686Z,8.23
2018-11-02T12:01:32.293Z,13.90
2018-11-02T12:04:05.033Z,12.37
2018-11-02T12:06:36.636Z,7.10
2018-11-02T12:09:09.142Z,5.70
2018-11-02T12:11:42.363Z,8.27
2018-11-02T12:14:12.839Z,5.50
2018-11-02T12:16:44.475Z,5.53
2018-11-02T12:19:17.316Z,6.97
2018-11-02T12:24:32.962Z,2.43
2018-11-02T12:27:03.923Z,4.93
2018-11-02T12:29:35.673Z,7.63
2018-11-02T12:32:07.792Z,8.17
2018-11-02T12:34:38.676Z,4.90
2018-11-02T12:37:11.215Z,5.60
2018-11-02T12:39:47.682Z,5.03
2018-11-02T12:42:21.555Z,11.23
2018-11-02T12:44:54.997Z,9.00
2018-11-02T12:47:26.061Z,9.67
2018-11-02T12:49:59.210Z,9.77
2018-11-02T12:52:33.220Z,10.40
2018-11-02T12:55:06.314Z,8.33
2018-11-02T12:57:36.583Z,11.83
2018-11-02T13:00:14.240Z,7.80
2018-11-02T13:02:47.796Z,9.50
2018-11-02T13:05:18.140Z,4.73
2018-11-02T13:07:48.905Z,6.77
2018-11-02T13:10:24.841Z,5.00
2018-11-02T13:12:56.413Z,7.80
2018-11-02T13:15:29.960Z,8.13
2018-11-02T13:18:03.319Z,9.47
2018-11-02T13:20:35.432Z,9.17
2018-11-02T13:23:08.411Z,5.10
2018-11-02T13:25:40.479Z,7.37
2018-11-02T13:28:13.125Z,8.90
2018-11-02T13:30:45.079Z,2.13
2018-11-02T13:33:17.817Z,7.80
2018-11-02T13:35:55.686Z,0.97
2018-11-02T13:38:28.880Z,4.63
2018-11-02T13:41:03.523Z,4.53
2018-11-02T13:43:33.401Z,4.30
2018-11-02T13:46:09.558Z,4.17
2018-11-02T13:48:43.564Z,7.60
2018-11-02T13:51:18.910Z,2.60
2018-11-02T13:53:49.155Z,6.50
2018-11-02T13:56:18.731Z,10.53
2018-11-02T13:58:53.594Z,2.93
2018-11-02T14:01:30.554Z,10.17
2018-11-02T14:04:02.210Z,15.30
2018-11-02T14:06:34.379Z,11.90
2018-11-02T14:09:09.778Z,5.23
2018-11-02T14:11:41.633Z,2.03
2018-11-02T14:14:12.503Z,1.13
2018-11-02T14:16:43.154Z,6.93
2018-11-02T14:19:13.657Z,5.00
2018-11-02T14:21:45.206Z,9.80
2018-11-02T14:27:07.899Z,14.87
2018-11-02T14:29:44.894Z,13.00
2018-11-02T14:32:15.196Z,4.83
2018-11-02T14:34:49.137Z,4.73
2018-11-02T14:37:21.300Z,4.87
2018-11-02T14:43:14.252Z,10.23
2018-11-02T14:45:44.728Z,13.00
2018-11-02T14:48:16.408Z,12.90
2018-11-02T14:50:51.692Z,4.43
2018-11-02T14:53:25.046Z,8.57
2018-11-02T14:59:36.638Z,13.07
2018-11-02T15:02:08.513Z,10.10
2018-11-02T15:04:39.912Z,9.00
2018-11-02T15:07:13.523Z,5.40
2018-11-02T15:09:47.771Z,6.80
2018-11-02T15:12:18.180Z,8.10
2018-11-02T15:14:52.654Z,9.00
2018-11-02T15:17:25.652Z,15.03
2018-11-02T15:19:56.950Z,7.60
2018-11-02T15:24:52.564Z,6.53
2018-11-02T15:27:28.978Z,10.60
2018-11-02T15:29:58.077Z,5.33
2018-11-02T15:32:29.777Z,8.67
2018-11-02T15:35:04.527Z,2.83
2018-11-02T15:37:33.957Z,4.10
2018-11-02T15:43:01.540Z,11.57
2018-11-02T15:45:40.181Z,2.63
2018-11-02T15:50:58.349Z,8.13
2018-11-02T15:53:31.578Z,5.77
2018-11-02T15:56:05.648Z,6.37
2018-11-02T15:58:40.786Z,7.30
2018-11-02T16:01:11.821Z,5.03
2018-11-02T16:03:43.087Z,6.20
2018-11-02T16:06:16.820Z,7.10
2018-11-02T16:08:53.281Z,7.23
2018-11-02T16:11:26.713Z,7.13
2018-11-02T16:14:02.924Z,10.03
2018-11-02T16:16:32.255Z,12.87
2018-11-02T16:19:04.118Z,11.20
2018-11-02T16:21:35.913Z,6.13
2018-11-02T16:24:15.609Z,9.33
2018-11-02T16:26:50.974Z,10.17
2018-11-02T16:29:23.448Z,6.53
2018-11-02T16:31:55.203Z,7.50
2018-11-02T16:35:06.767Z,11.63
2018-11-02T16:37:40.056Z,2.57
2018-11-02T16:41:05.928Z,15.03
2018-11-02T16:43:35.839Z,15.43
2018-11-02T16:46:05.870Z,12.20
2018-11-02T16:48:34.911Z,5.90
2018-11-02T16:51:04.192Z,8.63
2018-11-02T16:53:40.512Z,6.87
2018-11-02T16:56:10.181Z,13.20
2018-11-02T16:58:40.911Z,10.77
2018-11-02T17:01:10.019Z,8.60
2018-11-02T17:03:43.248Z,8.43
2018-11-02T17:06:20.376Z,10.53
2018-11-02T17:08:50.634Z,10.83
2018-11-02T17:11:19.997Z,7.40
2018-11-02T17:13:51.846Z,4.37
2018-11-02T17:16:22.776Z,8.27
2018-11-02T17:18:52.221Z,11.50
2018-11-02T17:21:24.197Z,8.10
2018-11-02T17:23:54.470Z,5.00
2018-11-02T17:26:25.438Z,6.37
2018-11-02T17:28:54.546Z,4.77
2018-11-02T17:31:24.516Z,5.00
2018-11-02T17:33:53.611Z,7.97
2018-11-02T17:36:24.109Z,15.33
2018-11-02T17:38:53.700Z,16.83
2018-11-02T17:41:23.547Z,8.43
2018-11-02T17:43:59.811Z,14.90
2018-11-02T17:46:29.844Z,17.40
2018-11-02T17:48:59.027Z,7.13
2018-11-02T17:51:29.885Z,4.40
2018-11-02T17:53:59.018Z,7.00
2018-11-02T17:56:32.437Z,9.87
2018-11-02T17:59:02.945Z,7.17
2018-11-02T18:01:32.922Z,7.80
2018-11-02T18:04:07.881Z,5.73
2018-11-02T18:06:37.550Z,9.13
2018-11-02T18:09:11.020Z,8.20
2018-11-02T18:11:41.944Z,8.57
2018-11-02T18:14:10.984Z,12.57
2018-11-02T18:16:41.786Z,9.20
2018-11-02T18:22:33.549Z,12.30
2018-11-02T18:25:03.613Z,11.30
2018-11-02T18:27:33.749Z,10.47
2018-11-02T18:30:03.217Z,12.07
2018-11-02T18:32:33.458Z,13.60
2018-11-02T18:35:04.492Z,16.57
2018-11-02T18:37:35.329Z,23.33
2018-11-02T18:40:04.780Z,23.13
2018-11-02T18:42:35.000Z,27.90
2018-11-02T18:45:08.963Z,15.73
2018-11-02T18:47:44.107Z,20.03
2018-11-02T18:50:14.319Z,18.67
2018-11-02T18:52:45.852Z,18.20
2018-11-02T18:55:17.447Z,17.87
2018-11-02T18:57:46.550Z,11.13
2018-11-02T19:00:20.310Z,14.33
2018-11-02T19:02:58.547Z,14.60
2018-11-02T19:05:35.039Z,8.87
2018-11-02T19:08:12.978Z,6.37
2018-11-02T19:10:49.586Z,8.57
2018-11-02T19:13:22.365Z,13.03
2018-11-02T19:15:56.851Z,12.40
2018-11-02T19:18:37.115Z,11.77
2018-11-02T19:21:13.028Z,8.43
2018-11-02T19:23:46.439Z,5.80
2018-11-02T19:26:20.154Z,11.63
2018-11-02T19:28:53.582Z,10.10
2018-11-02T19:31:30.266Z,9.57
2018-11-02T19:34:04.587Z,10.10
2018-11-02T19:36:37.166Z,9.23
2018-11-02T19:39:11.217Z,11.23
2018-11-02T19:42:03.721Z,6.83
2018-11-02T19:44:36.638Z,10.23
2018-11-02T19:47:09.025Z,10.73
2018-11-02T19:49:41.639Z,10.57
2018-11-02T19:52:11.970Z,10.33
2018-11-02T19:54:42.551Z,7.00
2018-11-02T19:57:13.126Z,9.63
2018-11-02T19:59:42.666Z,11.37
2018-11-02T20:02:14.315Z,9.13
2018-11-02T20:04:44.811Z,4.63
2018-11-02T20:07:14.925Z,8.63
2018-11-02T20:09:45.417Z,6.50
2018-11-02T20:12:14.499Z,7.90
2018-11-02T20:14:44.708Z,6.07
2018-11-02T20:17:14.170Z,9.00
2018-11-02T20:19:43.347Z,10.77
2018-11-02T20:22:16.900Z,3.80
2018-11-02T20:24:47.774Z,9.23
2018-11-02T20:27:19.257Z,5.60
2018-11-02T20:29:49.472Z,7.07
2018-11-02T20:32:23.856Z,8.67
2018-11-02T20:34:55.890Z,5.63
2018-11-02T20:37:28.024Z,12.00
2018-11-02T20:39:58.318Z,7.03
2018-11-02T20:42:28.858Z,8.93
2018-11-02T20:44:58.263Z,6.47
2018-11-02T20:47:33.027Z,11.70
2018-11-02T20:50:04.643Z,5.30
2018-11-02T20:52:34.368Z,6.07
2018-11-02T20:55:05.407Z,5.17
2018-11-02T20:57:35.515Z,6.20
2018-11-02T21:00:06.381Z,3.20
2018-11-02T21:02:35.894Z,3.83
2018-11-02T21:05:07.144Z,4.47
2018-11-02T21:07:36.164Z,7.63
2018-11-02T21:10:09.090Z,3.40
2018-11-02T21:12:39.038Z,5.70
2018-11-02T21:15:14.797Z,3.67
2018-11-02T21:17:45.786Z,8.83
2018-11-02T21:20:18.006Z,9.40
2018-11-02T21:22:49.821Z,3.63
2018-11-02T21:25:20.112Z,3.73
2018-11-02T21:27:53.476Z,7.67
2018-11-02T21:30:27.455Z,4.47
2018-11-02T21:32:59.626Z,2.87
2018-11-02T21:35:33.947Z,9.10
2018-11-02T21:38:07.340Z,5.23
2018-11-02T21:40:39.656Z,3.13
2018-11-02T21:43:09.427Z,3.63
2018-11-02T21:45:40.461Z,4.60
2018-11-02T21:48:10.172Z,5.90
2018-11-02T21:50:40.835Z,3.67
2018-11-02T21:53:12.835Z,3.90
2018-11-02T21:55:43.720Z,3.73
2018-11-02T21:58:13.280Z,2.67
2018-11-02T22:00:45.824Z,3.83
2018-11-02T22:03:15.856Z,11.17
2018-11-02T22:05:45.530Z,3.87
2018-11-02T22:08:18.174Z,3.43
2018-11-02T22:10:47.177Z,4.50
2018-11-02T22:13:16.550Z,5.83
2018-11-02T22:15:45.702Z,3.20
2018-11-02T22:18:15.988Z,4.20
2018-11-02T22:20:45.227Z,5.67
2018-11-02T22:23:14.931Z,7.30
2018-11-02T22:25:44.212Z,5.43
2018-11-02T22:28:13.265Z,3.50
2018-11-02T22:30:42.300Z,4.07
2018-11-02T22:33:11.684Z,4.17
2018-11-02T22:35:44.519Z,4.20
2018-11-02T22:38:16.885Z,3.47
2018-11-02T22:40:47.542Z,4.53
2018-11-02T22:43:17.541Z,3.47
2018-11-02T22:45:48.144Z,4.00
2018-11-02T22:48:23.254Z,5.47
2018-11-02T22:50:54.675Z,4.40
2018-11-02T22:53:23.797Z,5.47
2018-11-02T22:55:54.333Z,5.10
2018-11-02T22:58:23.663Z,5.03
2018-11-02T23:01:00.255Z,5.43
2018-11-02T23:03:32.137Z,3.77
2018-11-02T23:06:02.947Z,4.03
2018-11-02T23:08:33.719Z,2.37
2018-11-02T23:11:03.546Z,3.30
2018-11-02T23:13:36.473Z,3.13
2018-11-02T23:19:19.495Z,4.60
2018-11-02T23:22:06.233Z,3.87
2018-11-02T23:24:50.220Z,3.03
2018-11-02T23:27:32.236Z,4.37
2018-11-02T23:30:19.497Z,3.77
2018-11-02T23:33:04.522Z,3.57
2018-11-02T23:35:50.201Z,4.40
2018-11-02T23:38:31.513Z,4.27
2018-11-02T23:41:17.754Z,6.00
2018-11-02T23:43:47.020Z,4.60
2018-11-02T23:46:19.015Z,8.43
2018-11-02T23:49:04.357Z,3.53
2018-11-02T23:51:55.425Z,3.33
2018-11-02T23:54:38.710Z,3.90
2018-11-02T23:57:14.116Z,3.20
2018-11-02T23:59:43.660Z,3.27
